createdAt,value
2019-01-05T00:01:02.510Z,74.50
2019-01-05T00:04:07.815Z,74.40
2019-01-05T00:07:12.330Z,74.40
2019-01-05T00:10:17.537Z,74.40
2019-01-05T00:13:22.516Z,74.00
2019-01-05T00:16:27.440Z,74.40
2019-01-05T00:19:33.553Z,74.40
2019-01-05T00:22:38.652Z,74.40
2019-01-05T00:25:43.383Z,74.40
2019-01-05T00:28:54.868Z,74.40
2019-01-05T00:32:47.339Z,74.50
2019-01-05T00:36:01.704Z,74.50
2019-01-05T00:39:07.444Z,74.50
2019-01-05T00:42:14.267Z,74.50
2019-01-05T00:45:19.481Z,74.50
2019-01-05T00:48:30.626Z,74.60
2019-01-05T00:51:39.958Z,74.70
2019-01-05T00:54:45.133Z,74.60
2019-01-05T00:57:51.117Z,74.50
2019-01-05T01:03:00.528Z,74.60
2019-01-05T01:08:07.917Z,74.60
2019-01-05T01:11:21.881Z,74.60
2019-01-05T01:14:28.126Z,74.60
2019-01-05T01:18:33.989Z,74.60
2019-01-05T01:22:42.479Z,74.60
2019-01-05T01:27:57.564Z,74.70
2019-01-05T01:31:02.854Z,74.70
2019-01-05T01:34:08.130Z,74.70
2019-01-05T01:37:13.567Z,74.70
2019-01-05T01:40:20.420Z,74.80
2019-01-05T01:43:24.954Z,74.70
2019-01-05T01:46:37.981Z,74.80
2019-01-05T01:50:43.750Z,74.80
2019-01-05T01:54:08.844Z,74.70
2019-01-05T01:57:17.921Z,74.80
2019-01-05T02:00:27.223Z,74.80
2019-01-05T02:03:43.299Z,74.90
2019-01-05T02:06:59.901Z,74.80
2019-01-05T02:11:05.821Z,74.70
2019-01-05T02:15:15.392Z,74.80
2019-01-05T02:18:37.956Z,74.80
2019-01-05T02:24:01.462Z,74.80
2019-01-05T02:28:14.692Z,74.70
2019-01-05T02:32:36.222Z,74.70
2019-01-05T02:37:21.332Z,74.70
2019-01-05T02:41:06.102Z,74.80
2019-01-05T02:44:21.814Z,74.70
2019-01-05T02:49:43.216Z,74.70
2019-01-05T02:54:01.533Z,74.80
2019-01-05T02:57:52.197Z,74.80
2019-01-05T03:03:16.827Z,74.80
2019-01-05T03:06:38.643Z,74.80
2019-01-05T03:11:07.285Z,74.80
2019-01-05T03:19:27.831Z,74.90
2019-01-05T03:25:04.224Z,74.90
2019-01-05T03:31:24.127Z,74.90
2019-01-05T03:34:59.598Z,74.80
2019-01-05T03:38:40.902Z,74.70
2019-01-05T03:42:08.128Z,74.80
2019-01-05T03:45:25.655Z,74.80
2019-01-05T03:48:45.689Z,74.80
2019-01-05T03:52:37.717Z,74.80
2019-01-05T03:56:29.855Z,74.80
2019-01-05T03:59:56.358Z,74.70
2019-01-05T04:04:42.699Z,74.80
2019-01-05T04:08:37.673Z,74.80
2019-01-05T04:11:57.318Z,74.80
2019-01-05T04:15:19.217Z,74.80
2019-01-05T04:20:36.332Z,74.80
2019-01-05T04:25:16.074Z,74.80
2019-01-05T04:29:07.946Z,74.80
2019-01-05T04:32:29.150Z,74.80
2019-01-05T04:35:56.051Z,74.80
2019-01-05T04:41:52.235Z,74.90
2019-01-05T04:47:35.351Z,74.70
2019-01-05T04:50:53.402Z,75.30
2019-01-05T04:54:22.616Z,74.70
2019-01-05T05:00:39.132Z,74.70
2019-01-05T05:03:53.183Z,74.70
2019-01-05T05:07:11.563Z,74.70
2019-01-05T05:10:36.681Z,74.70
2019-01-05T05:17:08.671Z,74.80
2019-01-05T05:22:27.492Z,74.80
2019-01-05T05:28:50.648Z,74.70
2019-01-05T05:33:22.673Z,74.70
2019-01-05T05:36:51.614Z,74.70
2019-01-05T05:40:07.439Z,74.80
2019-01-05T05:43:24.015Z,74.80
2019-01-05T05:47:44.940Z,74.70
2019-01-05T05:52:04.429Z,74.70
2019-01-05T05:56:36.400Z,74.80
2019-01-05T06:02:02.568Z,74.70
2019-01-05T06:05:17.215Z,74.80
2019-01-05T06:08:36.365Z,75.00
2019-01-05T06:14:54.231Z,74.80
2019-01-05T06:19:07.782Z,75.00
2019-01-05T06:24:35.985Z,74.90
2019-01-05T06:29:51.946Z,74.90
2019-01-05T06:34:25.277Z,74.90
2019-01-05T06:40:38.864Z,74.90
2019-01-05T06:43:54.618Z,74.90
2019-01-05T06:47:14.863Z,75.00
2019-01-05T06:52:08.202Z,74.90
2019-01-05T06:55:22.645Z,74.90
2019-01-05T06:58:44.053Z,75.20
2019-01-05T07:05:01.810Z,74.90
2019-01-05T07:08:59.840Z,74.90
2019-01-05T07:13:19.452Z,74.90
2019-01-05T07:16:39.281Z,75.00
2019-01-05T07:19:57.904Z,74.90
2019-01-05T07:23:18.995Z,75.00
2019-01-05T07:26:33.682Z,74.90
2019-01-05T07:30:24.042Z,75.00
2019-01-05T07:36:44.447Z,74.90
2019-01-05T07:40:11.019Z,75.00
2019-01-05T07:44:35.905Z,74.90
2019-01-05T07:51:08.793Z,75.00
2019-01-05T07:54:25.452Z,75.00
2019-01-05T07:58:56.449Z,75.00
2019-01-05T08:04:09.401Z,75.00
2019-01-05T08:07:28.872Z,74.90
2019-01-05T08:10:49.593Z,75.00
2019-01-05T08:16:15.282Z,75.00
2019-01-05T08:21:35.455Z,75.00
2019-01-05T08:25:14.312Z,75.00
2019-01-05T08:29:30.422Z,75.10
2019-01-05T08:33:10.608Z,75.10
2019-01-05T08:38:29.875Z,75.10
2019-01-05T08:41:50.423Z,75.70
2019-01-05T08:47:17.457Z,75.00
2019-01-05T08:51:37.863Z,75.00
2019-01-05T08:56:00.070Z,75.00
2019-01-05T09:01:20.881Z,75.00
2019-01-05T09:04:38.750Z,75.10
2019-01-05T09:08:39.700Z,75.10
2019-01-05T09:16:44.638Z,75.10
2019-01-05T09:20:09.289Z,75.10
2019-01-05T09:24:03.378Z,75.80
2019-01-05T09:29:39.727Z,75.20
2019-01-05T09:33:11.874Z,75.20
2019-01-05T09:36:41.931Z,75.10
2019-01-05T09:42:03.423Z,75.10
2019-01-05T09:45:26.296Z,75.10
2019-01-05T09:53:47.604Z,75.00
2019-01-05T09:59:08.718Z,74.90
2019-01-05T10:03:32.722Z,75.20
2019-01-05T10:07:06.367Z,75.20
2019-01-05T10:12:42.569Z,75.30
2019-01-05T10:18:11.589Z,75.30
2019-01-05T10:22:03.428Z,75.20
2019-01-05T10:25:51.651Z,75.30
2019-01-05T10:29:43.644Z,75.10
2019-01-05T10:33:32.849Z,75.00
2019-01-05T10:37:20.566Z,75.00
2019-01-05T10:40:45.651Z,75.10
2019-01-05T10:44:36.817Z,75.00
2019-01-05T10:48:00.547Z,75.00
2019-01-05T10:53:27.539Z,75.00
2019-01-05T10:56:43.779Z,75.00
2019-01-05T11:02:06.039Z,75.00
2019-01-05T11:06:26.205Z,75.00
2019-01-05T11:12:43.816Z,75.00
2019-01-05T11:18:03.999Z,74.90
2019-01-05T11:23:47.219Z,74.90
2019-01-05T11:27:10.085Z,74.90
2019-01-05T11:31:34.826Z,74.90
2019-01-05T11:38:03.911Z,75.00
2019-01-05T11:41:18.570Z,74.90
2019-01-05T11:44:48.504Z,75.10
2019-01-05T11:48:04.365Z,75.20
2019-01-05T11:51:28.552Z,75.10
2019-01-05T11:55:03.706Z,75.20
2019-01-05T11:58:25.065Z,75.30
2019-01-05T12:01:44.579Z,75.30
2019-01-05T12:06:21.272Z,75.40
2019-01-05T12:09:44.420Z,75.40
2019-01-05T12:14:40.854Z,75.60
2019-01-05T12:18:58.552Z,75.60
2019-01-05T12:23:23.004Z,75.80
2019-01-05T12:26:59.959Z,75.70
2019-01-05T12:30:44.540Z,75.80
2019-01-05T12:36:32.942Z,75.80
2019-01-05T12:42:55.542Z,75.90
2019-01-05T12:48:27.738Z,75.90
2019-01-05T12:51:53.499Z,76.00
2019-01-05T12:55:26.099Z,75.90
2019-01-05T12:59:50.590Z,76.00
2019-01-05T13:03:12.335Z,75.90
2019-01-05T13:07:43.613Z,75.80
2019-01-05T13:12:09.698Z,75.90
2019-01-05T13:15:39.319Z,76.20
2019-01-05T13:22:04.587Z,75.80
2019-01-05T13:25:44.892Z,75.80
2019-01-05T13:32:18.981Z,75.90
2019-01-05T13:35:41.353Z,75.90
2019-01-05T13:40:15.177Z,76.00
2019-01-05T13:44:32.500Z,76.00
2019-01-05T13:49:50.216Z,76.00
2019-01-05T13:53:38.701Z,76.10
2019-01-05T13:57:24.911Z,76.80
2019-01-05T14:01:07.727Z,76.10
2019-01-05T14:04:14.400Z,76.20
2019-01-05T14:07:18.913Z,76.20
2019-01-05T14:11:29.660Z,76.20
2019-01-05T14:14:51.238Z,76.20
2019-01-05T14:17:58.686Z,76.20
2019-01-05T14:21:11.183Z,76.20
2019-01-05T14:24:17.913Z,76.30
2019-01-05T14:27:28.090Z,76.40
2019-01-05T14:31:35.442Z,76.30
2019-01-05T14:34:40.734Z,76.30
2019-01-05T14:37:45.212Z,76.20
2019-01-05T14:40:50.944Z,76.40
2019-01-05T14:43:55.918Z,76.40
2019-01-05T14:48:00.341Z,76.30
2019-01-05T14:51:05.668Z,76.40
2019-01-05T14:54:11.298Z,76.40
2019-01-05T15:01:23.974Z,76.40
2019-01-05T15:04:31.063Z,76.50
2019-01-05T15:07:41.998Z,76.60
2019-01-05T15:10:57.918Z,76.00
2019-01-05T15:15:03.213Z,76.70
2019-01-05T15:20:16.186Z,76.70
2019-01-05T15:23:22.805Z,76.70
2019-01-05T15:26:31.347Z,76.80
2019-01-05T15:29:36.804Z,76.80
2019-01-05T15:33:44.790Z,76.90
2019-01-05T15:36:52.014Z,76.90
2019-01-05T15:39:57.011Z,77.10
2019-01-05T15:43:02.399Z,77.00
2019-01-05T15:46:08.512Z,77.00
2019-01-05T15:49:46.572Z,77.00
2019-01-05T15:53:54.110Z,77.10
2019-01-05T15:57:03.091Z,77.10
2019-01-05T16:00:42.485Z,77.10
2019-01-05T16:03:56.265Z,77.20
2019-01-05T16:07:01.156Z,77.20
2019-01-05T16:10:06.584Z,77.20
2019-01-05T16:13:12.196Z,77.20
2019-01-05T16:17:21.052Z,77.20
2019-01-05T16:20:29.506Z,77.20
2019-01-05T16:23:34.617Z,77.30
2019-01-05T16:26:44.483Z,77.30
2019-01-05T16:31:53.127Z,77.40
2019-01-05T16:35:58.377Z,77.30
2019-01-05T16:39:03.353Z,77.40
2019-01-05T16:42:10.521Z,77.40
2019-01-05T16:45:15.301Z,78.10
2019-01-05T16:48:21.351Z,77.50
2019-01-05T16:51:26.965Z,77.40
2019-01-05T16:54:32.634Z,77.40
2019-01-05T16:58:14.872Z,77.50
2019-01-05T17:01:22.664Z,77.60
2019-01-05T17:04:58.215Z,77.60
2019-01-05T17:08:05.078Z,77.60
2019-01-05T17:11:10.438Z,77.60
2019-01-05T17:14:16.225Z,77.50
2019-01-05T17:17:20.483Z,77.50
2019-01-05T17:20:33.928Z,77.60
2019-01-05T17:23:53.161Z,77.50
2019-01-05T17:27:01.495Z,77.50
2019-01-05T17:30:22.189Z,77.40
2019-01-05T17:33:40.977Z,77.40
2019-01-05T17:36:53.780Z,77.40
2019-01-05T17:40:01.460Z,77.40
2019-01-05T17:43:07.139Z,77.40
2019-01-05T17:46:19.662Z,77.50
2019-01-05T17:51:27.288Z,77.40
2019-01-05T17:56:38.799Z,77.40
2019-01-05T17:59:49.973Z,77.40
2019-01-05T18:03:00.974Z,77.40
2019-01-05T18:06:12.084Z,77.50
2019-01-05T18:09:26.781Z,77.50
2019-01-05T18:12:30.400Z,77.50
2019-01-05T18:15:50.426Z,77.50
2019-01-05T18:18:57.256Z,77.60
2019-01-05T18:23:10.761Z,77.60
2019-01-05T18:26:16.406Z,77.60
2019-01-05T18:31:27.322Z,77.60
2019-01-05T18:36:35.772Z,77.60
2019-01-05T18:40:44.277Z,77.60
2019-01-05T18:44:51.003Z,77.70
2019-01-05T18:48:04.623Z,77.60
2019-01-05T18:51:09.843Z,77.70
2019-01-05T18:55:18.516Z,77.70
2019-01-05T18:58:23.762Z,77.70
2019-01-05T19:01:29.068Z,77.70
2019-01-05T19:05:04.151Z,77.80
2019-01-05T19:08:08.775Z,77.70
2019-01-05T19:11:13.264Z,77.70
2019-01-05T19:15:16.133Z,77.70
2019-01-05T19:20:25.620Z,77.70
2019-01-05T19:23:30.535Z,77.70
2019-01-05T19:26:35.862Z,77.80
2019-01-05T19:29:44.321Z,77.80
2019-01-05T19:32:48.770Z,77.80
2019-01-05T19:36:07.796Z,77.80
2019-01-05T19:41:20.452Z,77.80
2019-01-05T19:44:24.138Z,77.80
2019-01-05T19:47:27.781Z,77.90
2019-01-05T19:50:34.455Z,77.80
2019-01-05T19:53:39.016Z,77.80
2019-01-05T19:56:43.563Z,77.90
2019-01-05T19:59:49.984Z,77.90
2019-01-05T20:02:55.102Z,77.90
2019-01-05T20:06:06.664Z,77.90
2019-01-05T20:09:17.092Z,77.90
2019-01-05T20:12:21.849Z,77.90
2019-01-05T20:15:35.962Z,77.90
2019-01-05T20:18:43.685Z,77.80
2019-01-05T20:21:49.767Z,77.80
2019-01-05T20:24:56.164Z,77.60
2019-01-05T20:30:03.461Z,77.90
2019-01-05T20:33:14.994Z,77.90
2019-01-05T20:36:20.403Z,77.90
2019-01-05T20:39:25.235Z,77.90
2019-01-05T20:44:36.359Z,77.90
2019-01-05T20:47:41.171Z,77.90
2019-01-05T20:51:45.564Z,78.00
2019-01-05T20:57:00.423Z,78.00
2019-01-05T21:00:06.859Z,78.00
2019-01-05T21:03:28.652Z,78.10
2019-01-05T21:06:40.854Z,78.20
2019-01-05T21:09:47.087Z,78.10
2019-01-05T21:12:54.378Z,78.20
2019-01-05T21:16:02.800Z,78.20
2019-01-05T21:19:07.338Z,78.20
2019-01-05T21:23:12.702Z,78.20
2019-01-05T21:26:24.466Z,78.20
2019-01-05T21:31:29.094Z,78.20
2019-01-05T21:35:34.183Z,78.20
2019-01-05T21:38:48.007Z,78.30
2019-01-05T21:42:26.901Z,78.40
2019-01-05T21:45:52.350Z,78.40
2019-01-05T21:51:06.421Z,78.40
2019-01-05T21:54:14.266Z,78.50
2019-01-05T21:57:21.100Z,78.50
2019-01-05T22:00:26.481Z,78.50
2019-01-05T22:03:36.627Z,78.60
2019-01-05T22:06:55.805Z,78.60
2019-01-05T22:12:03.308Z,78.60
2019-01-05T22:17:16.840Z,78.60
2019-01-05T22:22:27.104Z,78.60
2019-01-05T22:25:31.760Z,78.70
2019-01-05T22:41:31.723Z,78.60
2019-01-05T22:44:36.198Z,78.70
2019-01-05T22:51:10.403Z,78.30
2019-01-05T22:54:20.838Z,78.80
2019-01-05T22:57:25.571Z,78.90
2019-01-05T23:01:34.462Z,78.90
2019-01-05T23:04:44.129Z,78.90
2019-01-05T23:09:51.546Z,79.00
2019-01-05T23:12:56.236Z,78.90
2019-01-05T23:16:00.883Z,78.90
2019-01-05T23:19:13.341Z,78.90
2019-01-05T23:23:17.329Z,78.90
2019-01-05T23:26:33.721Z,78.90
2019-01-05T23:29:40.664Z,79.00
2019-01-05T23:32:49.715Z,78.90
2019-01-05T23:37:02.357Z,79.00
2019-01-05T23:41:12.739Z,79.00
2019-01-05T23:44:32.309Z,79.00
2019-01-05T23:48:39.359Z,79.10
2019-01-05T23:52:43.423Z,79.50
2019-01-05T23:55:47.969Z,79.00
